sensor_id;sensor_type;location;lat;lon;timestamp;P1;durP1;ratioP1;P2;durP2;ratioP2
3677;SDS011;1855;50.934;6.958;2022-07-09T00:00:51;4.10;;;3.53;;
3677;SDS011;1855;50.934;6.958;2022-07-09T00:03:19;5.25;;;3.90;;
3677;SDS011;1855;50.934;6.958;2022-07-09T00:05:46;4.43;;;3.30;;
3677;SDS011;1855;50.934;6.958;2022-07-09T00:08:13;5.03;;;3.80;;
3677;SDS011;1855;50.934;6.958;2022-07-09T00:10:42;4.70;;;4.00;;
3677;SDS011;1855;50.934;6.958;2022-07-09T00:13:09;4.25;;;3.85;;
3677;SDS011;1855;50.934;6.958;2022-07-09T00:15:36;4.80;;;4.03;;
3677;SDS011;1855;50.934;6.958;2022-07-09T00:18:03;6.72;;;5.90;;
3677;SDS011;1855;50.934;6.958;2022-07-09T00:20:30;5.70;;;5.10;;
3677;SDS011;1855;50.934;6.958;2022-07-09T00:22:57;5.22;;;4.70;;
3677;SDS011;1855;50.934;6.958;2022-07-09T00:25:24;6.30;;;5.28;;
3677;SDS011;1855;50.934;6.958;2022-07-09T00:27:53;7.32;;;5.00;;
3677;SDS011;1855;50.934;6.958;2022-07-09T00:30:20;5.80;;;5.07;;
3677;SDS011;1855;50.934;6.958;2022-07-09T00:32:47;5.43;;;4.93;;
3677;SDS011;1855;50.934;6.958;2022-07-09T00:35:14;4.80;;;4.40;;
3677;SDS011;1855;50.934;6.958;2022-07-09T00:37:41;4.82;;;4.05;;
3677;SDS011;1855;50.934;6.958;2022-07-09T00:40:08;5.20;;;4.70;;
3677;SDS011;1855;50.934;6.958;2022-07-09T00:42:36;7.22;;;6.18;;
3677;SDS011;1855;50.934;6.958;2022-07-09T00:45:05;8.40;;;5.90;;
3677;SDS011;1855;50.934;6.958;2022-07-09T00:47:32;6.45;;;5.82;;
3677;SDS011;1855;50.934;6.958;2022-07-09T00:49:59;5.05;;;4.55;;
3677;SDS011;1855;50.934;6.958;2022-07-09T00:52:27;4.40;;;4.00;;
3677;SDS011;1855;50.934;6.958;2022-07-09T00:54:55;4.90;;;3.53;;
3677;SDS011;1855;50.934;6.958;2022-07-09T00:57:23;5.27;;;3.97;;
3677;SDS011;1855;50.934;6.958;2022-07-09T00:59:50;5.22;;;3.92;;
3677;SDS011;1855;50.934;6.958;2022-07-09T01:02:19;5.45;;;3.90;;
3677;SDS011;1855;50.934;6.958;2022-07-09T01:04:48;5.03;;;4.10;;
3677;SDS011;1855;50.934;6.958;2022-07-09T01:07:15;4.97;;;3.70;;
3677;SDS011;1855;50.934;6.958;2022-07-09T01:09:42;5.78;;;3.83;;
3677;SDS011;1855;50.934;6.958;2022-07-09T01:12:09;5.78;;;4.57;;
3677;SDS011;1855;50.934;6.958;2022-07-09T01:14:36;6.00;;;5.40;;
3677;SDS011;1855;50.934;6.958;2022-07-09T01:17:04;7.23;;;5.87;;
3677;SDS011;1855;50.934;6.958;2022-07-09T01:19:33;6.68;;;5.25;;
3677;SDS011;1855;50.934;6.958;2022-07-09T01:22:02;6.30;;;5.60;;
3677;SDS011;1855;50.934;6.958;2022-07-09T01:24:29;7.47;;;5.50;;
3677;SDS011;1855;50.934;6.958;2022-07-09T01:26:57;6.93;;;5.55;;
3677;SDS011;1855;50.934;6.958;2022-07-09T01:29:24;5.82;;;4.80;;
3677;SDS011;1855;50.934;6.958;2022-07-09T01:31:51;6.18;;;4.72;;
3677;SDS011;1855;50.934;6.958;2022-07-09T01:34:18;5.75;;;4.50;;
3677;SDS011;1855;50.934;6.958;2022-07-09T01:36:45;5.30;;;4.57;;
3677;SDS011;1855;50.934;6.958;2022-07-09T01:39:13;6.32;;;4.70;;
3677;SDS011;1855;50.934;6.958;2022-07-09T01:41:41;6.93;;;4.65;;
3677;SDS011;1855;50.934;6.958;2022-07-09T01:44:08;6.90;;;5.07;;
3677;SDS011;1855;50.934;6.958;2022-07-09T01:46:35;7.43;;;4.30;;
3677;SDS011;1855;50.934;6.958;2022-07-09T01:49:02;8.80;;;4.55;;
3677;SDS011;1855;50.934;6.958;2022-07-09T01:51:30;5.70;;;4.90;;
3677;SDS011;1855;50.934;6.958;2022-07-09T01:53:57;6.50;;;4.70;;
3677;SDS011;1855;50.934;6.958;2022-07-09T01:56:26;7.85;;;5.50;;
3677;SDS011;1855;50.934;6.958;2022-07-09T01:58:53;6.67;;;4.97;;
3677;SDS011;1855;50.934;6.958;2022-07-09T02:01:20;5.15;;;4.63;;
3677;SDS011;1855;50.934;6.958;2022-07-09T02:03:47;5.63;;;4.90;;
3677;SDS011;1855;50.934;6.958;2022-07-09T02:06:14;6.63;;;4.90;;
3677;SDS011;1855;50.934;6.958;2022-07-09T02:08:41;5.43;;;4.80;;
3677;SDS011;1855;50.934;6.958;2022-07-09T02:11:09;5.88;;;4.80;;
3677;SDS011;1855;50.934;6.958;2022-07-09T02:13:37;7.43;;;4.60;;
3677;SDS011;1855;50.934;6.958;2022-07-09T02:16:05;6.95;;;5.05;;
3677;SDS011;1855;50.934;6.958;2022-07-09T02:18:33;8.25;;;5.40;;
3677;SDS011;1855;50.934;6.958;2022-07-09T02:21:00;6.32;;;4.90;;
3677;SDS011;1855;50.934;6.958;2022-07-09T02:23:27;6.53;;;5.10;;
3677;SDS011;1855;50.934;6.958;2022-07-09T02:25:54;7.80;;;5.00;;
3677;SDS011;1855;50.934;6.958;2022-07-09T02:28:21;8.90;;;4.97;;
3677;SDS011;1855;50.934;6.958;2022-07-09T02:30:50;8.43;;;5.47;;
3677;SDS011;1855;50.934;6.958;2022-07-09T02:33:17;6.35;;;5.60;;
3677;SDS011;1855;50.934;6.958;2022-07-09T02:35:44;6.40;;;4.90;;
3677;SDS011;1855;50.934;6.958;2022-07-09T02:38:11;6.13;;;5.20;;
3677;SDS011;1855;50.934;6.958;2022-07-09T02:40:39;7.40;;;5.20;;
3677;SDS011;1855;50.934;6.958;2022-07-09T02:43:06;8.57;;;5.45;;
3677;SDS011;1855;50.934;6.958;2022-07-09T02:45:33;8.40;;;5.20;;
3677;SDS011;1855;50.934;6.958;2022-07-09T02:48:01;7.40;;;5.25;;
3677;SDS011;1855;50.934;6.958;2022-07-09T02:50:28;6.50;;;4.87;;
3677;SDS011;1855;50.934;6.958;2022-07-09T02:52:56;9.70;;;5.60;;
3677;SDS011;1855;50.934;6.958;2022-07-09T02:55:23;7.05;;;5.70;;
3677;SDS011;1855;50.934;6.958;2022-07-09T02:57:50;5.70;;;5.10;;
3677;SDS011;1855;50.934;6.958;2022-07-09T03:00:17;5.15;;;4.65;;
3677;SDS011;1855;50.934;6.958;2022-07-09T03:02:44;6.97;;;5.47;;
3677;SDS011;1855;50.934;6.958;2022-07-09T03:05:12;5.65;;;5.15;;
3677;SDS011;1855;50.934;6.958;2022-07-09T03:07:40;6.10;;;4.90;;
3677;SDS011;1855;50.934;6.958;2022-07-09T03:10:07;6.30;;;5.10;;
3677;SDS011;1855;50.934;6.958;2022-07-09T03:12:34;6.93;;;5.50;;
3677;SDS011;1855;50.934;6.958;2022-07-09T03:15:02;6.10;;;5.22;;
3677;SDS011;1855;50.934;6.958;2022-07-09T03:17:29;6.15;;;5.07;;
3677;SDS011;1855;50.934;6.958;2022-07-09T03:19:56;4.72;;;4.30;;
3677;SDS011;1855;50.934;6.958;2022-07-09T03:22:24;6.80;;;5.10;;
3677;SDS011;1855;50.934;6.958;2022-07-09T03:24:51;6.47;;;5.07;;
3677;SDS011;1855;50.934;6.958;2022-07-09T03:27:19;5.93;;;5.30;;
3677;SDS011;1855;50.934;6.958;2022-07-09T03:29:46;6.93;;;4.85;;
3677;SDS011;1855;50.934;6.958;2022-07-09T03:32:13;5.72;;;4.95;;
3677;SDS011;1855;50.934;6.958;2022-07-09T03:34:40;6.22;;;4.72;;
3677;SDS011;1855;50.934;6.958;2022-07-09T03:37:07;6.93;;;5.00;;
3677;SDS011;1855;50.934;6.958;2022-07-09T03:39:35;9.05;;;5.28;;
3677;SDS011;1855;50.934;6.958;2022-07-09T03:42:03;6.13;;;4.70;;
3677;SDS011;1855;50.934;6.958;2022-07-09T03:44:31;5.75;;;4.80;;
3677;SDS011;1855;50.934;6.958;2022-07-09T03:46:59;6.40;;;5.40;;
3677;SDS011;1855;50.934;6.958;2022-07-09T03:49:26;9.00;;;5.47;;
3677;SDS011;1855;50.934;6.958;2022-07-09T03:51:53;6.30;;;4.67;;
3677;SDS011;1855;50.934;6.958;2022-07-09T03:54:20;6.90;;;4.85;;
3677;SDS011;1855;50.934;6.958;2022-07-09T03:56:49;7.65;;;5.05;;
3677;SDS011;1855;50.934;6.958;2022-07-09T03:59:16;7.18;;;5.40;;
3677;SDS011;1855;50.934;6.958;2022-07-09T04:01:43;6.13;;;5.15;;
3677;SDS011;1855;50.934;6.958;2022-07-09T04:04:10;7.03;;;5.30;;
3677;SDS011;1855;50.934;6.958;2022-07-09T04:06:38;10.30;;;6.00;;
3677;SDS011;1855;50.934;6.958;2022-07-09T04:09:05;5.97;;;5.40;;
3677;SDS011;1855;50.934;6.958;2022-07-09T04:11:32;6.97;;;5.65;;
3677;SDS011;1855;50.934;6.958;2022-07-09T04:14:01;7.22;;;6.03;;
3677;SDS011;1855;50.934;6.958;2022-07-09T04:16:28;6.47;;;5.45;;
3677;SDS011;1855;50.934;6.958;2022-07-09T04:18:56;7.30;;;6.43;;
3677;SDS011;1855;50.934;6.958;2022-07-09T04:21:23;7.00;;;6.30;;
3677;SDS011;1855;50.934;6.958;2022-07-09T04:23:50;6.60;;;5.80;;
3677;SDS011;1855;50.934;6.958;2022-07-09T04:26:18;7.63;;;6.45;;
3677;SDS011;1855;50.934;6.958;2022-07-09T04:28:45;9.10;;;6.50;;
3677;SDS011;1855;50.934;6.958;2022-07-09T04:31:13;7.00;;;6.40;;
3677;SDS011;1855;50.934;6.958;2022-07-09T04:33:41;7.10;;;6.40;;
3677;SDS011;1855;50.934;6.958;2022-07-09T04:36:08;7.03;;;6.30;;
3677;SDS011;1855;50.934;6.958;2022-07-09T04:38:36;8.30;;;6.60;;
3677;SDS011;1855;50.934;6.958;2022-07-09T04:41:03;8.45;;;7.05;;
3677;SDS011;1855;50.934;6.958;2022-07-09T04:43:30;9.38;;;7.60;;
3677;SDS011;1855;50.934;6.958;2022-07-09T04:45:58;8.27;;;6.70;;
3677;SDS011;1855;50.934;6.958;2022-07-09T04:48:26;8.40;;;7.47;;
3677;SDS011;1855;50.934;6.958;2022-07-09T04:50:54;10.32;;;9.30;;
3677;SDS011;1855;50.934;6.958;2022-07-09T04:53:21;10.35;;;9.35;;
3677;SDS011;1855;50.934;6.958;2022-07-09T04:55:48;10.68;;;9.23;;
3677;SDS011;1855;50.934;6.958;2022-07-09T04:58:15;9.55;;;8.65;;
3677;SDS011;1855;50.934;6.958;2022-07-09T05:00:43;11.40;;;9.75;;
3677;SDS011;1855;50.934;6.958;2022-07-09T05:03:10;10.00;;;9.20;;
3677;SDS011;1855;50.934;6.958;2022-07-09T05:05:38;11.27;;;10.18;;
3677;SDS011;1855;50.934;6.958;2022-07-09T05:08:05;10.90;;;9.90;;
3677;SDS011;1855;50.934;6.958;2022-07-09T05:10:32;10.35;;;9.35;;
3677;SDS011;1855;50.934;6.958;2022-07-09T05:12:59;11.50;;;10.40;;
3677;SDS011;1855;50.934;6.958;2022-07-09T05:15:27;10.75;;;9.80;;
3677;SDS011;1855;50.934;6.958;2022-07-09T05:17:55;10.73;;;9.73;;
3677;SDS011;1855;50.934;6.958;2022-07-09T05:20:23;10.32;;;9.48;;
3677;SDS011;1855;50.934;6.958;2022-07-09T05:22:51;10.70;;;9.77;;
3677;SDS011;1855;50.934;6.958;2022-07-09T05:25:18;11.00;;;10.00;;
3677;SDS011;1855;50.934;6.958;2022-07-09T05:27:46;10.93;;;10.00;;
3677;SDS011;1855;50.934;6.958;2022-07-09T05:30:13;11.25;;;10.15;;
3677;SDS011;1855;50.934;6.958;2022-07-09T05:32:41;11.30;;;10.40;;
3677;SDS011;1855;50.934;6.958;2022-07-09T05:35:08;11.47;;;10.37;;
3677;SDS011;1855;50.934;6.958;2022-07-09T05:37:40;12.10;;;10.90;;
3677;SDS011;1855;50.934;6.958;2022-07-09T05:40:09;11.13;;;10.27;;
3677;SDS011;1855;50.934;6.958;2022-07-09T05:42:36;11.30;;;10.30;;
3677;SDS011;1855;50.934;6.958;2022-07-09T05:45:04;8.18;;;7.55;;
3677;SDS011;1855;50.934;6.958;2022-07-09T05:47:31;9.90;;;9.10;;
3677;SDS011;1855;50.934;6.958;2022-07-09T05:49:58;10.33;;;9.20;;
3677;SDS011;1855;50.934;6.958;2022-07-09T05:52:25;9.18;;;8.30;;
3677;SDS011;1855;50.934;6.958;2022-07-09T05:54:52;10.25;;;9.45;;
3677;SDS011;1855;50.934;6.958;2022-07-09T05:57:21;10.25;;;9.32;;
3677;SDS011;1855;50.934;6.958;2022-07-09T05:59:48;9.57;;;8.60;;
3677;SDS011;1855;50.934;6.958;2022-07-09T06:02:15;11.10;;;10.20;;
3677;SDS011;1855;50.934;6.958;2022-07-09T06:04:42;10.33;;;9.53;;
3677;SDS011;1855;50.934;6.958;2022-07-09T06:07:09;11.25;;;10.23;;
3677;SDS011;1855;50.934;6.958;2022-07-09T06:09:36;9.50;;;8.68;;
3677;SDS011;1855;50.934;6.958;2022-07-09T06:12:04;10.50;;;9.40;;
3677;SDS011;1855;50.934;6.958;2022-07-09T06:14:32;8.90;;;8.10;;
3677;SDS011;1855;50.934;6.958;2022-07-09T06:16:59;11.00;;;9.90;;
3677;SDS011;1855;50.934;6.958;2022-07-09T06:19:31;8.98;;;8.07;;
3677;SDS011;1855;50.934;6.958;2022-07-09T06:21:58;8.85;;;7.03;;
3677;SDS011;1855;50.934;6.958;2022-07-09T06:24:25;10.18;;;9.27;;
3677;SDS011;1855;50.934;6.958;2022-07-09T06:26:52;10.30;;;9.40;;
3677;SDS011;1855;50.934;6.958;2022-07-09T06:29:19;8.60;;;7.82;;
3677;SDS011;1855;50.934;6.958;2022-07-09T06:31:48;9.35;;;8.43;;
3677;SDS011;1855;50.934;6.958;2022-07-09T06:34:15;6.50;;;5.90;;
3677;SDS011;1855;50.934;6.958;2022-07-09T06:36:42;8.20;;;7.40;;
3677;SDS011;1855;50.934;6.958;2022-07-09T06:39:09;8.48;;;7.68;;
3677;SDS011;1855;50.934;6.958;2022-07-09T06:42:02;6.80;;;6.20;;
3677;SDS011;1855;50.934;6.958;2022-07-09T06:44:29;6.40;;;5.72;;
3677;SDS011;1855;50.934;6.958;2022-07-09T06:46:57;7.53;;;5.03;;
3677;SDS011;1855;50.934;6.958;2022-07-09T06:49:24;6.22;;;5.55;;
3677;SDS011;1855;50.934;6.958;2022-07-09T06:51:52;5.53;;;4.93;;
3677;SDS011;1855;50.934;6.958;2022-07-09T06:54:19;6.75;;;5.70;;
3677;SDS011;1855;50.934;6.958;2022-07-09T06:56:46;6.22;;;5.63;;
3677;SDS011;1855;50.934;6.958;2022-07-09T06:59:13;5.03;;;4.20;;
3677;SDS011;1855;50.934;6.958;2022-07-09T07:01:41;6.88;;;5.00;;
3677;SDS011;1855;50.934;6.958;2022-07-09T07:04:09;4.25;;;3.85;;
3677;SDS011;1855;50.934;6.958;2022-07-09T07:06:37;3.85;;;3.20;;
3677;SDS011;1855;50.934;6.958;2022-07-09T07:09:04;3.72;;;2.90;;
3677;SDS011;1855;50.934;6.958;2022-07-09T07:11:32;5.05;;;3.63;;
3677;SDS011;1855;50.934;6.958;2022-07-09T07:13:59;3.15;;;2.85;;
3677;SDS011;1855;50.934;6.958;2022-07-09T07:16:26;2.60;;;2.40;;
3677;SDS011;1855;50.934;6.958;2022-07-09T07:18:53;4.00;;;3.00;;
3677;SDS011;1855;50.934;6.958;2022-07-09T07:21:21;4.43;;;3.40;;
3677;SDS011;1855;50.934;6.958;2022-07-09T07:23:48;3.97;;;3.10;;
3677;SDS011;1855;50.934;6.958;2022-07-09T07:26:15;5.30;;;4.75;;
3677;SDS011;1855;50.934;6.958;2022-07-09T07:28:42;4.60;;;4.10;;
3677;SDS011;1855;50.934;6.958;2022-07-09T07:31:10;4.70;;;4.20;;
3677;SDS011;1855;50.934;6.958;2022-07-09T07:33:37;6.13;;;3.70;;
3677;SDS011;1855;50.934;6.958;2022-07-09T07:36:04;4.57;;;3.70;;
3677;SDS011;1855;50.934;6.958;2022-07-09T07:38:33;4.50;;;3.80;;
3677;SDS011;1855;50.934;6.958;2022-07-09T07:41:00;8.65;;;4.43;;
3677;SDS011;1855;50.934;6.958;2022-07-09T07:43:27;4.32;;;3.88;;
3677;SDS011;1855;50.934;6.958;2022-07-09T07:45:54;4.13;;;3.50;;
3677;SDS011;1855;50.934;6.958;2022-07-09T07:48:21;5.00;;;3.65;;
3677;SDS011;1855;50.934;6.958;2022-07-09T07:50:48;7.23;;;6.07;;
3677;SDS011;1855;50.934;6.958;2022-07-09T07:53:15;6.88;;;5.97;;
3677;SDS011;1855;50.934;6.958;2022-07-09T07:55:44;6.93;;;6.10;;
3677;SDS011;1855;50.934;6.958;2022-07-09T07:58:11;6.25;;;5.65;;
3677;SDS011;1855;50.934;6.958;2022-07-09T08:00:38;6.75;;;5.75;;
3677;SDS011;1855;50.934;6.958;2022-07-09T08:03:05;6.67;;;5.97;;
3677;SDS011;1855;50.934;6.958;2022-07-09T08:05:32;7.55;;;6.40;;
3677;SDS011;1855;50.934;6.958;2022-07-09T08:08:00;8.30;;;7.30;;
3677;SDS011;1855;50.934;6.958;2022-07-09T08:10:27;9.27;;;7.53;;
3677;SDS011;1855;50.934;6.958;2022-07-09T08:12:55;9.32;;;7.75;;
3677;SDS011;1855;50.934;6.958;2022-07-09T08:15:22;7.07;;;5.30;;
3677;SDS011;1855;50.934;6.958;2022-07-09T08:17:51;6.20;;;5.57;;
3677;SDS011;1855;50.934;6.958;2022-07-09T08:20:19;5.30;;;4.80;;
3677;SDS011;1855;50.934;6.958;2022-07-09T08:22:46;5.88;;;5.00;;
3677;SDS011;1855;50.934;6.958;2022-07-09T08:25:13;6.45;;;5.43;;
3677;SDS011;1855;50.934;6.958;2022-07-09T08:27:40;5.90;;;5.15;;
3677;SDS011;1855;50.934;6.958;2022-07-09T08:30:09;4.85;;;4.20;;
3677;SDS011;1855;50.934;6.958;2022-07-09T08:32:36;4.10;;;3.70;;
3677;SDS011;1855;50.934;6.958;2022-07-09T08:35:04;3.70;;;3.13;;
3677;SDS011;1855;50.934;6.958;2022-07-09T08:37:32;4.32;;;2.97;;
3677;SDS011;1855;50.934;6.958;2022-07-09T08:39:59;3.45;;;2.80;;
3677;SDS011;1855;50.934;6.958;2022-07-09T08:42:27;3.30;;;3.00;;
3677;SDS011;1855;50.934;6.958;2022-07-09T08:44:54;3.10;;;2.60;;
3677;SDS011;1855;50.934;6.958;2022-07-09T08:47:23;4.20;;;1.90;;
3677;SDS011;1855;50.934;6.958;2022-07-09T08:49:50;1.80;;;1.70;;
3677;SDS011;1855;50.934;6.958;2022-07-09T08:52:21;2.72;;;1.88;;
3677;SDS011;1855;50.934;6.958;2022-07-09T08:54:49;2.60;;;1.83;;
3677;SDS011;1855;50.934;6.958;2022-07-09T08:57:17;2.08;;;1.88;;
3677;SDS011;1855;50.934;6.958;2022-07-09T08:59:44;2.35;;;2.10;;
3677;SDS011;1855;50.934;6.958;2022-07-09T09:02:11;2.85;;;1.90;;
3677;SDS011;1855;50.934;6.958;2022-07-09T09:04:40;2.17;;;1.70;;
3677;SDS011;1855;50.934;6.958;2022-07-09T09:07:17;2.35;;;1.70;;
3677;SDS011;1855;50.934;6.958;2022-07-09T09:09:44;2.20;;;1.55;;
3677;SDS011;1855;50.934;6.958;2022-07-09T09:12:11;2.50;;;1.60;;
3677;SDS011;1855;50.934;6.958;2022-07-09T09:14:39;2.80;;;1.70;;
3677;SDS011;1855;50.934;6.958;2022-07-09T09:17:14;2.20;;;1.88;;
3677;SDS011;1855;50.934;6.958;2022-07-09T09:19:43;3.00;;;2.20;;
3677;SDS011;1855;50.934;6.958;2022-07-09T09:22:14;2.60;;;2.10;;
3677;SDS011;1855;50.934;6.958;2022-07-09T09:24:41;1.67;;;1.40;;
3677;SDS011;1855;50.934;6.958;2022-07-09T09:27:08;2.50;;;1.80;;
3677;SDS011;1855;50.934;6.958;2022-07-09T09:29:35;2.00;;;1.52;;
3677;SDS011;1855;50.934;6.958;2022-07-09T09:32:08;2.30;;;1.50;;
3677;SDS011;1855;50.934;6.958;2022-07-09T09:34:36;2.30;;;1.58;;
3677;SDS011;1855;50.934;6.958;2022-07-09T09:37:07;1.60;;;1.30;;
3677;SDS011;1855;50.934;6.958;2022-07-09T09:39:35;2.28;;;1.77;;
3677;SDS011;1855;50.934;6.958;2022-07-09T09:42:02;2.00;;;1.55;;
3677;SDS011;1855;50.934;6.958;2022-07-09T09:44:30;1.33;;;1.23;;
3677;SDS011;1855;50.934;6.958;2022-07-09T09:47:03;2.20;;;1.70;;
3677;SDS011;1855;50.934;6.958;2022-07-09T09:49:30;2.28;;;1.60;;
3677;SDS011;1855;50.934;6.958;2022-07-09T09:52:00;1.60;;;1.50;;
3677;SDS011;1855;50.934;6.958;2022-07-09T09:54:30;1.50;;;1.30;;
3677;SDS011;1855;50.934;6.958;2022-07-09T09:56:58;1.95;;;1.85;;
3677;SDS011;1855;50.934;6.958;2022-07-09T09:59:25;2.38;;;1.38;;
3677;SDS011;1855;50.934;6.958;2022-07-09T10:01:52;1.50;;;1.20;;
3677;SDS011;1855;50.934;6.958;2022-07-09T10:04:19;2.20;;;1.33;;
3677;SDS011;1855;50.934;6.958;2022-07-09T10:06:46;2.40;;;1.30;;
3677;SDS011;1855;50.934;6.958;2022-07-09T10:09:14;2.53;;;1.40;;
3677;SDS011;1855;50.934;6.958;2022-07-09T10:11:43;1.75;;;1.20;;
3677;SDS011;1855;50.934;6.958;2022-07-09T10:14:17;2.20;;;1.13;;
3677;SDS011;1855;50.934;6.958;2022-07-09T10:16:45;1.55;;;1.38;;
3677;SDS011;1855;50.934;6.958;2022-07-09T10:19:21;1.83;;;1.30;;
3677;SDS011;1855;50.934;6.958;2022-07-09T10:21:51;4.40;;;1.50;;
3677;SDS011;1855;50.934;6.958;2022-07-09T10:24:23;1.60;;;1.00;;
3677;SDS011;1855;50.934;6.958;2022-07-09T10:26:51;1.35;;;1.00;;
3677;SDS011;1855;50.934;6.958;2022-07-09T10:29:19;2.10;;;1.20;;
3677;SDS011;1855;50.934;6.958;2022-07-09T10:31:46;1.70;;;1.20;;
3677;SDS011;1855;50.934;6.958;2022-07-09T10:34:18;1.88;;;1.02;;
3677;SDS011;1855;50.934;6.958;2022-07-09T10:36:57;1.20;;;1.10;;
3677;SDS011;1855;50.934;6.958;2022-07-09T10:39:24;1.30;;;1.20;;
3677;SDS011;1855;50.934;6.958;2022-07-09T10:41:59;1.10;;;1.00;;
3677;SDS011;1855;50.934;6.958;2022-07-09T10:44:26;2.10;;;1.10;;
3677;SDS011;1855;50.934;6.958;2022-07-09T10:46:55;1.40;;;1.20;;
3677;SDS011;1855;50.934;6.958;2022-07-09T10:49:22;1.80;;;1.20;;
3677;SDS011;1855;50.934;6.958;2022-07-09T10:51:54;1.48;;;1.10;;
3677;SDS011;1855;50.934;6.958;2022-07-09T10:54:21;1.17;;;1.00;;
3677;SDS011;1855;50.934;6.958;2022-07-09T10:56:49;1.20;;;1.10;;
3677;SDS011;1855;50.934;6.958;2022-07-09T10:59:17;2.33;;;1.20;;
3677;SDS011;1855;50.934;6.958;2022-07-09T11:01:45;2.10;;;1.33;;
3677;SDS011;1855;50.934;6.958;2022-07-09T11:04:12;2.40;;;1.30;;
3677;SDS011;1855;50.934;6.958;2022-07-09T11:06:49;1.30;;;0.90;;
3677;SDS011;1855;50.934;6.958;2022-07-09T11:09:16;1.52;;;1.10;;
3677;SDS011;1855;50.934;6.958;2022-07-09T11:11:44;1.40;;;1.10;;
3677;SDS011;1855;50.934;6.958;2022-07-09T11:14:12;1.40;;;1.20;;
3677;SDS011;1855;50.934;6.958;2022-07-09T11:16:41;1.38;;;1.27;;
3677;SDS011;1855;50.934;6.958;2022-07-09T11:19:14;1.75;;;1.02;;
3677;SDS011;1855;50.934;6.958;2022-07-09T11:21:41;1.50;;;1.20;;
3677;SDS011;1855;50.934;6.958;2022-07-09T11:24:12;2.90;;;1.10;;
3677;SDS011;1855;50.934;6.958;2022-07-09T11:26:40;1.40;;;1.30;;
3677;SDS011;1855;50.934;6.958;2022-07-09T11:29:07;1.15;;;1.05;;
3677;SDS011;1855;50.934;6.958;2022-07-09T11:31:34;1.23;;;0.90;;
3677;SDS011;1855;50.934;6.958;2022-07-09T11:34:03;1.38;;;1.00;;
3677;SDS011;1855;50.934;6.958;2022-07-09T11:36:39;2.20;;;1.10;;
3677;SDS011;1855;50.934;6.958;2022-07-09T11:39:07;1.20;;;1.10;;
3677;SDS011;1855;50.934;6.958;2022-07-09T11:41:40;1.30;;;1.10;;
3677;SDS011;1855;50.934;6.958;2022-07-09T11:44:08;1.37;;;1.23;;
3677;SDS011;1855;50.934;6.958;2022-07-09T11:46:37;1.30;;;0.93;;
3677;SDS011;1855;50.934;6.958;2022-07-09T11:49:13;2.10;;;1.00;;
3677;SDS011;1855;50.934;6.958;2022-07-09T11:51:41;1.45;;;1.20;;
3677;SDS011;1855;50.934;6.958;2022-07-09T11:54:09;1.50;;;1.10;;
3677;SDS011;1855;50.934;6.958;2022-07-09T11:56:39;2.00;;;1.40;;
3677;SDS011;1855;50.934;6.958;2022-07-09T11:59:08;2.25;;;1.42;;
3677;SDS011;1855;50.934;6.958;2022-07-09T12:01:35;1.60;;;1.50;;
3677;SDS011;1855;50.934;6.958;2022-07-09T12:04:03;1.98;;;1.40;;
3677;SDS011;1855;50.934;6.958;2022-07-09T12:06:32;3.00;;;1.60;;
3677;SDS011;1855;50.934;6.958;2022-07-09T12:08:59;1.90;;;1.40;;
3677;SDS011;1855;50.934;6.958;2022-07-09T12:11:27;1.50;;;1.30;;
3677;SDS011;1855;50.934;6.958;2022-07-09T12:13:54;1.90;;;1.50;;
3677;SDS011;1855;50.934;6.958;2022-07-09T12:16:21;1.70;;;1.60;;
3677;SDS011;1855;50.934;6.958;2022-07-09T12:18:49;2.07;;;1.70;;
3677;SDS011;1855;50.934;6.958;2022-07-09T12:21:16;1.80;;;1.53;;
3677;SDS011;1855;50.934;6.958;2022-07-09T12:23:45;2.55;;;1.70;;
3677;SDS011;1855;50.934;6.958;2022-07-09T12:26:12;1.98;;;1.85;;
3677;SDS011;1855;50.934;6.958;2022-07-09T12:28:39;2.35;;;2.00;;
3677;SDS011;1855;50.934;6.958;2022-07-09T12:31:07;2.30;;;1.83;;
3677;SDS011;1855;50.934;6.958;2022-07-09T12:33:34;3.00;;;1.85;;
3677;SDS011;1855;50.934;6.958;2022-07-09T12:36:01;2.40;;;2.20;;
3677;SDS011;1855;50.934;6.958;2022-07-09T12:38:28;2.88;;;2.40;;
3677;SDS011;1855;50.934;6.958;2022-07-09T12:40:56;2.50;;;2.30;;
3677;SDS011;1855;50.934;6.958;2022-07-09T12:43:24;2.78;;;2.13;;
3677;SDS011;1855;50.934;6.958;2022-07-09T12:45:51;3.60;;;2.45;;
3677;SDS011;1855;50.934;6.958;2022-07-09T12:48:18;2.80;;;2.50;;
3677;SDS011;1855;50.934;6.958;2022-07-09T12:53:17;4.30;;;2.20;;
3677;SDS011;1855;50.934;6.958;2022-07-09T12:55:44;2.42;;;2.13;;
3677;SDS011;1855;50.934;6.958;2022-07-09T12:58:13;2.20;;;2.00;;
3677;SDS011;1855;50.934;6.958;2022-07-09T13:00:40;2.47;;;2.28;;
3677;SDS011;1855;50.934;6.958;2022-07-09T13:03:07;2.90;;;2.40;;
3677;SDS011;1855;50.934;6.958;2022-07-09T13:05:35;2.45;;;2.25;;
3677;SDS011;1855;50.934;6.958;2022-07-09T13:08:02;2.58;;;2.38;;
3677;SDS011;1855;50.934;6.958;2022-07-09T13:10:29;2.97;;;2.50;;
3677;SDS011;1855;50.934;6.958;2022-07-09T13:12:56;3.47;;;3.27;;
3677;SDS011;1855;50.934;6.958;2022-07-09T13:15:25;4.60;;;3.70;;
3677;SDS011;1855;50.934;6.958;2022-07-09T13:17:52;5.10;;;4.20;;
3677;SDS011;1855;50.934;6.958;2022-07-09T13:20:19;4.85;;;4.40;;
3677;SDS011;1855;50.934;6.958;2022-07-09T13:22:46;6.03;;;5.43;;
3677;SDS011;1855;50.934;6.958;2022-07-09T13:25:14;6.53;;;5.82;;
3677;SDS011;1855;50.934;6.958;2022-07-09T13:27:41;6.13;;;5.63;;
3677;SDS011;1855;50.934;6.958;2022-07-09T13:30:08;7.00;;;6.40;;
3677;SDS011;1855;50.934;6.958;2022-07-09T13:32:37;5.95;;;5.45;;
3677;SDS011;1855;50.934;6.958;2022-07-09T13:35:04;7.50;;;6.90;;
3677;SDS011;1855;50.934;6.958;2022-07-09T13:37:31;7.10;;;6.50;;
3677;SDS011;1855;50.934;6.958;2022-07-09T13:39:59;6.65;;;6.15;;
3677;SDS011;1855;50.934;6.958;2022-07-09T13:42:26;6.28;;;5.88;;
3677;SDS011;1855;50.934;6.958;2022-07-09T13:44:53;6.75;;;6.15;;
3677;SDS011;1855;50.934;6.958;2022-07-09T13:47:20;6.60;;;6.10;;
3677;SDS011;1855;50.934;6.958;2022-07-09T13:49:48;7.65;;;7.15;;
3677;SDS011;1855;50.934;6.958;2022-07-09T13:52:16;8.40;;;7.70;;
3677;SDS011;1855;50.934;6.958;2022-07-09T13:54:43;8.95;;;8.30;;
3677;SDS011;1855;50.934;6.958;2022-07-09T13:57:10;9.05;;;8.25;;
3677;SDS011;1855;50.934;6.958;2022-07-09T13:59:38;8.60;;;7.90;;
3677;SDS011;1855;50.934;6.958;2022-07-09T14:02:05;8.60;;;8.00;;
3677;SDS011;1855;50.934;6.958;2022-07-09T14:04:32;9.48;;;8.77;;
3677;SDS011;1855;50.934;6.958;2022-07-09T14:07:01;10.13;;;9.32;;
3677;SDS011;1855;50.934;6.958;2022-07-09T14:09:28;9.68;;;9.00;;
3677;SDS011;1855;50.934;6.958;2022-07-09T14:11:55;9.93;;;9.10;;
3677;SDS011;1855;50.934;6.958;2022-07-09T14:14:22;9.48;;;8.68;;
3677;SDS011;1855;50.934;6.958;2022-07-09T14:16:50;9.73;;;9.13;;
3677;SDS011;1855;50.934;6.958;2022-07-09T14:19:17;9.65;;;8.95;;
3677;SDS011;1855;50.934;6.958;2022-07-09T14:21:44;9.15;;;8.45;;
3677;SDS011;1855;50.934;6.958;2022-07-09T14:24:12;9.00;;;8.40;;
3677;SDS011;1855;50.934;6.958;2022-07-09T14:26:40;9.00;;;8.40;;
3677;SDS011;1855;50.934;6.958;2022-07-09T14:29:08;10.25;;;9.45;;
3677;SDS011;1855;50.934;6.958;2022-07-09T14:31:36;7.25;;;6.68;;
3677;SDS011;1855;50.934;6.958;2022-07-09T14:34:03;7.30;;;6.70;;
3677;SDS011;1855;50.934;6.958;2022-07-09T14:36:30;6.10;;;5.70;;
3677;SDS011;1855;50.934;6.958;2022-07-09T14:38:57;7.43;;;6.82;;
3677;SDS011;1855;50.934;6.958;2022-07-09T14:41:28;7.30;;;6.80;;
3677;SDS011;1855;50.934;6.958;2022-07-09T14:43:55;9.70;;;9.10;;
3677;SDS011;1855;50.934;6.958;2022-07-09T14:46:22;7.20;;;6.60;;
3677;SDS011;1855;50.934;6.958;2022-07-09T14:48:49;8.20;;;7.60;;
3677;SDS011;1855;50.934;6.958;2022-07-09T14:51:16;7.18;;;6.47;;
3677;SDS011;1855;50.934;6.958;2022-07-09T14:53:44;6.10;;;5.50;;
3677;SDS011;1855;50.934;6.958;2022-07-09T14:56:11;5.50;;;5.10;;
3677;SDS011;1855;50.934;6.958;2022-07-09T14:58:39;5.40;;;4.90;;
3677;SDS011;1855;50.934;6.958;2022-07-09T15:01:07;4.90;;;4.50;;
3677;SDS011;1855;50.934;6.958;2022-07-09T15:03:34;5.05;;;4.68;;
3677;SDS011;1855;50.934;6.958;2022-07-09T15:06:01;4.70;;;4.40;;
3677;SDS011;1855;50.934;6.958;2022-07-09T15:08:28;4.60;;;4.20;;
3677;SDS011;1855;50.934;6.958;2022-07-09T15:10:55;4.60;;;4.20;;
3677;SDS011;1855;50.934;6.958;2022-07-09T15:13:22;4.85;;;4.45;;
3677;SDS011;1855;50.934;6.958;2022-07-09T15:15:53;4.75;;;4.35;;
3677;SDS011;1855;50.934;6.958;2022-07-09T15:18:20;4.18;;;3.88;;